Time;durP1;ratioP1;P1;durP2;ratioP2;P2;SDS_P1;SDS_P2;PMS_P1;PMS_P2;Temp;Humidity;BMP_temperature;BMP_pressure;BME280_temperature;BME280_humidity;BME280_pressure;Samples;Min_cycle;Max_cycle;Signal;HPM_P1;HPM_P2
2022/03/15 00:01:08;;;;;;;12.43;10.45;;;;;;;4.42;63.89;102160.53;4990131;28;20480;-21
2022/03/15 00:03:34;;;;;;;13.60;10.65;;;;;;;4.40;63.33;102150.84;4990160;28;20118;-23
2022/03/15 00:05:59;;;;;;;14.10;11.23;;;;;;;4.37;63.57;102159.47;4993881;28;20057;-23
2022/03/15 00:08:26;;;;;;;11.63;9.82;;;;;;;4.34;63.43;102159.34;4993496;28;20036;-23
2022/03/15 00:10:55;;;;;;;12.25;10.25;;;;;;;4.31;63.50;102156.59;4992248;28;20093;-23
2022/03/15 00:13:21;;;;;;;12.73;10.82;;;;;;;4.27;63.77;102158.16;4990758;28;20038;-22
2022/03/15 00:15:47;;;;;;;13.68;10.45;;;;;;;4.25;63.81;102159.84;4974620;28;20089;-21
2022/03/15 00:18:12;;;;;;;12.90;10.73;;;;;;;4.21;63.86;102158.81;4990170;28;20477;-23
2022/03/15 00:20:38;;;;;;;12.00;10.15;;;;;;;4.19;63.58;102162.19;4990224;28;20042;-22
2022/03/15 00:23:03;;;;;;;11.30;10.00;;;;;;;4.15;63.80;102153.34;4990614;28;20580;-22
2022/03/15 00:25:30;;;;;;;15.35;10.90;;;;;;;4.13;64.07;102157.59;4991517;28;20034;-23
2022/03/15 00:27:56;;;;;;;15.23;10.82;;;;;;;4.08;64.20;102149.59;4994281;28;20424;-23
2022/03/15 00:30:23;;;;;;;12.35;10.07;;;;;;;4.06;63.91;102147.72;4991569;28;20109;-22
2022/03/15 00:32:49;;;;;;;13.95;10.73;;;;;;;4.03;64.15;102153.72;4988318;28;20030;-22
2022/03/15 00:35:23;;;;;;;15.25;10.77;;;;;;;4.00;63.79;102158.81;4993993;28;20022;-23
2022/03/15 00:37:51;;;;;;;13.38;10.27;;;;;;;3.97;64.18;102164.81;4988353;28;20026;-22
2022/03/15 00:40:17;;;;;;;12.30;10.43;;;;;;;3.94;64.00;102159.44;4992850;28;20045;-23
2022/03/15 00:42:52;;;;;;;12.05;10.43;;;;;;;3.89;64.70;102149.63;4990726;28;20038;-22
2022/03/15 00:45:19;;;;;;;12.07;9.57;;;;;;;3.87;64.66;102154.78;4989707;28;20050;-23
2022/03/15 00:47:45;;;;;;;11.57;9.90;;;;;;;3.84;64.28;102163.38;4990352;28;20037;-23
2022/03/15 00:50:12;;;;;;;13.00;9.98;;;;;;;3.79;64.93;102156.19;4992548;28;20676;-22
2022/03/15 00:52:37;;;;;;;11.48;10.13;;;;;;;3.77;64.54;102158.72;4993007;28;20075;-23
2022/03/15 00:55:04;;;;;;;11.10;9.35;;;;;;;3.74;64.45;102160.31;4989933;28;20014;-23
2022/03/15 00:57:30;;;;;;;13.75;10.20;;;;;;;3.72;64.61;102179.44;4992106;28;20551;-23
2022/03/15 00:59:55;;;;;;;11.65;9.68;;;;;;;3.69;64.48;102189.72;4990381;28;20108;-23
2022/03/15 01:02:21;;;;;;;12.73;9.82;;;;;;;3.67;64.70;102193.09;4998634;28;20374;-22
2022/03/15 01:04:46;;;;;;;12.43;10.48;;;;;;;3.64;64.72;102187.75;4998711;28;20616;-24
2022/03/15 01:07:12;;;;;;;11.95;9.85;;;;;;;3.57;64.72;102187.47;4999241;28;20026;-20
2022/03/15 01:09:38;;;;;;;12.60;10.27;;;;;;;3.58;64.96;102193.59;4996486;28;20058;-22
2022/03/15 01:12:04;;;;;;;11.75;10.30;;;;;;;3.54;64.38;102194.28;4993209;28;20025;-22
2022/03/15 01:14:29;;;;;;;12.50;9.73;;;;;;;3.52;64.54;102204.63;4995774;28;20105;-22
2022/03/15 01:16:55;;;;;;;12.43;10.10;;;;;;;3.48;64.38;102207.94;4987370;28;20038;-23
2022/03/15 01:19:22;;;;;;;10.27;8.98;;;;;;;3.45;64.59;102200.88;4990745;28;20045;-19
2022/03/15 01:21:48;;;;;;;13.50;9.50;;;;;;;3.43;64.81;102209.41;4989728;28;20026;-23
2022/03/15 01:24:13;;;;;;;13.00;10.85;;;;;;;3.39;64.83;102192.75;4991888;28;20037;-23
2022/03/15 01:26:39;;;;;;;11.77;10.23;;;;;;;3.37;64.69;102194.38;4992412;28;20030;-22
2022/03/15 01:29:04;;;;;;;13.32;10.20;;;;;;;3.34;64.91;102202.97;4989217;28;20109;-23
2022/03/15 01:31:30;;;;;;;13.73;10.23;;;;;;;3.31;64.97;102205.44;4989927;28;20076;-23
2022/03/15 01:33:55;;;;;;;13.88;10.90;;;;;;;3.28;64.75;102194.88;4990349;28;20030;-22
2022/03/15 01:36:21;;;;;;;13.55;11.68;;;;;;;3.27;64.91;102194.81;4997678;28;20496;-22
2022/03/15 01:38:47;;;;;;;13.18;9.68;;;;;;;3.24;64.83;102199.88;4992591;28;20045;-23
2022/03/15 01:41:12;;;;;;;12.50;9.75;;;;;;;3.21;64.63;102205.84;4991044;28;20092;-22
2022/03/15 01:43:40;;;;;;;12.45;10.73;;;;;;;3.20;64.81;102204.03;4998042;28;20029;-23
2022/03/15 01:46:06;;;;;;;13.30;10.32;;;;;;;3.17;65.05;102202.19;4991877;28;20033;-22
2022/03/15 01:48:32;;;;;;;14.18;11.07;;;;;;;3.11;64.85;102196.72;4993541;28;20034;-23
2022/03/15 01:50:57;;;;;;;12.55;10.02;;;;;;;3.09;64.91;102198.34;4988110;28;20483;-23
2022/03/15 01:53:22;;;;;;;13.82;10.20;;;;;;;3.08;65.12;102196.56;4996031;28;20488;-23
2022/03/15 01:55:48;;;;;;;11.63;9.63;;;;;;;3.05;65.41;102199.03;4992837;28;20025;-23
2022/03/15 01:58:14;;;;;;;11.63;9.82;;;;;;;3.03;64.84;102198.06;4993454;28;20032;-23
2022/03/15 02:00:39;;;;;;;11.45;9.90;;;;;;;3.01;65.03;102199.72;4994958;28;20069;-22
2022/03/15 02:03:05;;;;;;;10.40;9.30;;;;;;;2.98;64.94;102199.56;5001786;28;20037;-23
2022/03/15 02:05:30;;;;;;;13.25;9.90;;;;;;;2.95;65.01;102201.22;5002939;28;20579;-21
2022/03/15 02:07:56;;;;;;;11.75;9.45;;;;;;;2.94;65.31;102193.31;5003333;28;20635;-22
2022/03/15 02:10:22;;;;;;;11.95;10.43;;;;;;;2.91;65.09;102191.47;4997012;28;20026;-22
2022/03/15 02:12:47;;;;;;;11.35;9.80;;;;;;;2.88;65.01;102188.72;4992921;28;20030;-22
2022/03/15 02:15:13;;;;;;;10.15;9.10;;;;;;;2.85;64.54;102185.97;4994615;28;20033;-23
2022/03/15 02:17:39;;;;;;;11.55;9.65;;;;;;;2.82;64.95;102198.84;4998031;28;20042;-22
2022/03/15 02:20:08;;;;;;;11.77;9.40;;;;;;;2.81;65.02;102184.03;4988985;28;20065;-23
2022/03/15 02:22:34;;;;;;;10.93;8.80;;;;;;;2.78;65.20;102187.38;4993597;28;20026;-23
2022/03/15 02:25:00;;;;;;;10.27;9.07;;;;;;;2.77;65.07;102190.78;4994053;28;20109;-23
2022/03/15 02:27:25;;;;;;;11.30;9.05;;;;;;;2.72;64.95;102178.38;4994246;28;20026;-24
2022/03/15 02:29:51;;;;;;;11.63;9.40;;;;;;;2.70;64.87;102170.47;4994002;28;20037;-22
2022/03/15 02:32:17;;;;;;;11.65;9.25;;;;;;;2.68;65.18;102180.84;4990737;28;20025;-23
2022/03/15 02:34:42;;;;;;;12.18;8.88;;;;;;;2.64;65.20;102168.47;4989162;28;21637;-22
2022/03/15 02:37:08;;;;;;;12.68;9.98;;;;;;;2.62;65.22;102170.13;4992491;28;20226;-23
2022/03/15 02:39:34;;;;;;;9.27;8.18;;;;;;;2.60;65.27;102161.31;4995273;28;20048;-23
2022/03/15 02:42:00;;;;;;;12.68;9.75;;;;;;;2.59;65.00;102161.25;4993942;28;20105;-23
2022/03/15 02:44:25;;;;;;;10.30;9.05;;;;;;;2.58;64.93;102172.50;4992669;28;20532;-22
2022/03/15 02:46:51;;;;;;;10.43;9.15;;;;;;;2.53;64.86;102167.97;4990796;28;20034;-22
2022/03/15 02:49:17;;;;;;;10.23;8.55;;;;;;;2.51;65.39;102172.22;4991217;28;20030;-23
2022/03/15 02:51:42;;;;;;;11.75;9.63;;;;;;;2.50;65.43;102177.34;4990953;28;20066;-23
2022/03/15 02:54:11;;;;;;;9.82;8.60;;;;;;;2.48;65.48;102176.38;4990966;28;20065;-22
2022/03/15 02:56:39;;;;;;;10.63;9.35;;;;;;;2.47;65.02;102174.59;4990413;28;20037;-29
2022/03/15 02:59:05;;;;;;;10.73;9.63;;;;;;;2.44;65.44;102180.56;4992354;28;20026;-20
2022/03/15 03:01:30;;;;;;;9.35;8.38;;;;;;;2.42;65.40;102188.28;4992178;28;20061;-23
2022/03/15 03:03:56;;;;;;;11.43;9.32;;;;;;;2.39;65.48;102188.13;4993188;28;20030;-24
2022/03/15 03:06:21;;;;;;;11.20;9.32;;;;;;;2.37;65.36;102184.53;4992976;28;20092;-22
2022/03/15 03:08:47;;;;;;;11.23;9.15;;;;;;;2.36;65.64;102185.38;4989461;28;20054;-23
2022/03/15 03:11:13;;;;;;;10.77;8.57;;;;;;;2.35;65.44;102191.41;4991106;28;20026;-22
2022/03/15 03:13:44;;;;;;;11.32;9.10;;;;;;;2.32;65.31;102186.03;4991418;28;20026;-23
2022/03/15 03:16:12;;;;;;;;;;;;;;;2.30;65.62;102182.44;4995073;28;20024;-22
2022/03/15 03:18:38;;;;;;;10.15;8.52;;;;;;;2.29;65.55;102180.66;4993361;28;20299;-23
2022/03/15 03:21:04;;;;;;;10.38;9.05;;;;;;;2.27;65.28;102184.94;4999891;28;20026;-22
2022/03/15 03:23:34;;;;;;;10.02;8.20;;;;;;;2.24;65.32;102185.69;4998702;28;20105;-23
2022/03/15 03:26:03;;;;;;;12.30;9.87;;;;;;;2.24;65.66;102187.38;4996533;28;20037;-22
2022/03/15 03:28:38;;;;;;;10.55;9.13;;;;;;;2.22;65.73;102189.91;4992324;28;20035;-22
2022/03/15 03:31:05;;;;;;;11.70;9.55;;;;;;;2.20;65.46;102185.44;4992013;28;20030;-22
2022/03/15 03:33:30;;;;;;;10.55;9.45;;;;;;;2.17;65.45;102181.84;4990492;28;20091;-23
2022/03/15 03:35:56;;;;;;;10.60;9.00;;;;;;;2.17;65.70;102180.97;4995754;28;20536;-22
2022/03/15 03:38:22;;;;;;;10.07;8.45;;;;;;;2.15;65.57;102172.19;4993391;28;20134;-22
2022/03/15 03:40:48;;;;;;;10.32;8.85;;;;;;;2.12;65.26;102175.53;4995089;28;20484;-23
2022/03/15 03:43:13;;;;;;;10.57;8.95;;;;;;;2.11;65.82;102176.34;4991434;28;21604;-22
2022/03/15 03:45:39;;;;;;;10.77;8.85;;;;;;;2.09;65.67;102177.06;4990421;28;20499;-22
2022/03/15 03:48:05;;;;;;;9.77;8.38;;;;;;;2.08;65.61;102171.00;4991307;28;20031;-23
2022/03/15 03:50:30;;;;;;;11.25;8.90;;;;;;;2.06;65.56;102172.59;4988875;28;20022;-23
2022/03/15 03:52:55;;;;;;;10.18;9.10;;;;;;;2.03;65.36;102173.34;4993898;28;20480;-23
2022/03/15 03:55:21;;;;;;;11.52;8.88;;;;;;;2.02;65.86;102170.66;4990128;28;20122;-23
2022/03/15 03:57:47;;;;;;;11.85;9.80;;;;;;;2.02;65.38;102173.28;4994228;28;20550;-22
2022/03/15 04:00:13;;;;;;;13.65;10.68;;;;;;;2.00;65.62;102173.19;4988986;28;20054;-24
2022/03/15 04:02:38;;;;;;;12.75;9.82;;;;;;;1.99;65.90;102173.13;4991330;28;21442;-23
2022/03/15 04:05:04;;;;;;;12.68;9.50;;;;;;;1.98;65.68;102173.94;4996490;28;20026;-23
2022/03/15 04:07:29;;;;;;;10.95;9.18;;;;;;;1.96;65.63;102176.47;4991290;28;20030;-23
2022/03/15 04:09:55;;;;;;;11.88;10.65;;;;;;;1.95;65.81;102168.56;4993465;28;20026;-23
2022/03/15 04:12:23;;;;;;;12.43;9.43;;;;;;;1.92;65.89;102167.63;4994915;28;20423;-23
2022/03/15 04:14:48;;;;;;;13.88;10.05;;;;;;;1.91;66.09;102164.94;5001280;28;20110;-23
2022/03/15 04:17:15;;;;;;;11.85;10.23;;;;;;;1.90;65.65;102165.75;4999481;28;20447;-23
2022/03/15 04:19:40;;;;;;;11.50;9.88;;;;;;;1.89;66.12;102164.84;5000501;28;20030;-21
2022/03/15 04:22:06;;;;;;;12.02;9.55;;;;;;;1.89;66.03;102172.66;4992993;28;20032;-24
2022/03/15 04:24:32;;;;;;;13.88;10.75;;;;;;;1.87;65.93;102168.19;4990652;28;20053;-23
2022/03/15 04:26:59;;;;;;;14.00;11.02;;;;;;;1.87;65.93;102163.88;4990418;28;20026;-22
2022/03/15 04:29:24;;;;;;;15.07;10.50;;;;;;;1.84;66.04;102153.34;4986382;28;20117;-22
2022/03/15 04:31:50;;;;;;;12.32;9.93;;;;;;;1.83;65.95;102148.91;4988747;28;20026;-22
2022/03/15 04:34:15;;;;;;;13.93;10.38;;;;;;;1.82;66.03;102157.53;4991465;28;20091;-23
2022/03/15 04:36:41;;;;;;;13.73;10.73;;;;;;;1.80;65.70;102153.97;4992694;28;20029;-22
2022/03/15 04:39:06;;;;;;;13.93;10.48;;;;;;;1.79;66.06;102160.00;4986418;28;20058;-22
2022/03/15 04:41:32;;;;;;;14.50;10.93;;;;;;;1.78;65.79;102155.59;4988645;28;20038;-22
2022/03/15 04:43:57;;;;;;;13.45;9.73;;;;;;;1.77;65.71;102153.84;4990861;28;20381;-22
2022/03/15 04:46:23;;;;;;;14.65;10.82;;;;;;;1.76;65.63;102154.63;4987904;28;20034;-22
2022/03/15 04:48:50;;;;;;;14.05;9.60;;;;;;;1.75;66.07;102156.34;4992792;28;20058;-22
2022/03/15 04:51:15;;;;;;;12.88;10.02;;;;;;;1.73;66.04;102152.75;4996816;28;20028;-22
2022/03/15 04:53:40;;;;;;;13.02;9.65;;;;;;;1.73;66.04;102151.88;4998509;28;20254;-23
2022/03/15 04:56:06;;;;;;;14.00;10.43;;;;;;;1.72;65.63;102143.19;4994870;28;20074;-23
2022/03/15 04:58:32;;;;;;;13.65;9.98;;;;;;;1.72;65.89;102144.88;4996212;28;20037;-22
2022/03/15 05:00:57;;;;;;;11.10;9.10;;;;;;;1.70;66.06;102156.94;4988734;28;20409;-22
2022/03/15 05:03:23;;;;;;;10.60;8.77;;;;;;;1.67;65.96;102142.94;4992497;28;20033;-22
2022/03/15 05:05:48;;;;;;;13.40;9.48;;;;;;;1.66;65.93;102141.16;4989452;28;20025;-22
2022/03/15 05:08:13;;;;;;;13.30;9.52;;;;;;;1.64;65.52;102147.97;4992507;28;20527;-23
2022/03/15 05:13:23;;;;;;;10.90;8.68;;;;;;;1.62;65.66;102152.22;4989154;28;20092;-23
2022/03/15 05:15:49;;;;;;;13.38;10.50;;;;;;;1.62;65.57;102152.22;4974121;28;20015;-22
2022/03/15 05:18:14;;;;;;;13.30;10.35;;;;;;;1.60;65.55;102150.38;4989866;28;20034;-23
2022/03/15 05:20:39;;;;;;;12.15;9.90;;;;;;;1.61;65.85;102154.75;4989895;28;20026;-21
2022/03/15 05:23:05;;;;;;;11.65;9.80;;;;;;;1.58;65.86;102147.69;4988548;28;20761;-23
2022/03/15 05:25:30;;;;;;;12.50;9.07;;;;;;;1.59;65.95;102148.56;4988831;28;20022;-28
2022/03/15 05:27:56;;;;;;;10.27;8.93;;;;;;;1.57;65.46;102148.47;4988850;28;20034;-23
2022/03/15 05:30:22;;;;;;;12.05;9.65;;;;;;;1.56;65.59;102141.50;4990894;28;20032;-22
2022/03/15 05:32:47;;;;;;;13.18;10.32;;;;;;;1.56;65.62;102148.41;4990582;28;20026;-22
2022/03/15 05:35:13;;;;;;;14.60;10.23;;;;;;;1.52;65.63;102136.94;4990151;28;20069;-23
2022/03/15 05:37:38;;;;;;;12.63;9.95;;;;;;;1.51;65.79;102140.38;4991133;28;20014;-23
2022/03/15 05:40:04;;;;;;;12.07;9.73;;;;;;;1.50;65.78;102143.78;4965151;28;20022;-20
2022/03/15 05:42:30;;;;;;;11.15;9.50;;;;;;;1.48;65.81;102140.19;4989746;28;20058;-23
2022/03/15 05:44:55;;;;;;;11.05;9.00;;;;;;;1.47;65.55;102143.63;4990157;28;20394;-22
2022/03/15 05:47:21;;;;;;;10.85;8.98;;;;;;;1.46;65.35;102141.84;4988074;28;20590;-22
2022/03/15 05:49:46;;;;;;;10.73;8.73;;;;;;;1.44;65.63;102144.38;4990049;28;20041;-23
2022/03/15 05:52:11;;;;;;;12.30;9.38;;;;;;;1.44;65.72;102133.97;4991944;28;20038;-22
2022/03/15 05:54:37;;;;;;;10.88;8.93;;;;;;;1.43;66.11;102131.28;4987134;28;20045;-22
2022/03/15 05:57:03;;;;;;;13.98;9.32;;;;;;;1.41;65.56;102133.78;4991511;28;20038;-23
2022/03/15 05:59:28;;;;;;;12.20;9.60;;;;;;;1.41;65.58;102139.88;4989634;28;20113;-22
2022/03/15 06:01:54;;;;;;;13.07;10.05;;;;;;;1.41;65.49;102136.41;4989258;28;20465;-22
2022/03/15 06:04:24;;;;;;;12.77;9.85;;;;;;;1.39;65.85;102151.91;4989378;28;20552;-23
2022/03/15 06:06:49;;;;;;;16.15;9.88;;;;;;;1.39;65.53;102151.91;4987932;28;20028;-22
2022/03/15 06:09:14;;;;;;;12.18;9.43;;;;;;;1.39;65.72;102151.91;4989998;28;20026;-23
2022/03/15 06:11:40;;;;;;;12.00;9.50;;;;;;;1.38;65.98;102157.94;4988686;28;20030;-22
2022/03/15 06:14:06;;;;;;;12.82;10.50;;;;;;;1.37;66.05;102152.66;4991275;28;20499;-22
2022/03/15 06:16:31;;;;;;;13.10;9.23;;;;;;;1.36;65.63;102151.75;4987025;28;20027;-22
2022/03/15 06:18:57;;;;;;;12.40;9.77;;;;;;;1.36;65.61;102151.75;4988750;28;20440;-22
2022/03/15 06:21:23;;;;;;;15.60;11.25;;;;;;;1.36;65.86;102146.53;4987708;28;20022;-23
2022/03/15 06:23:48;;;;;;;11.60;9.35;;;;;;;1.36;65.48;102143.94;4994835;28;20026;-23
2022/03/15 06:26:15;;;;;;;12.77;10.43;;;;;;;1.35;65.64;102142.16;4994626;28;21195;-23
2022/03/15 06:28:40;;;;;;;12.63;10.18;;;;;;;1.35;65.50;102142.16;4997911;28;20026;-22
2022/03/15 06:31:06;;;;;;;12.68;9.77;;;;;;;1.36;65.51;102143.94;4997677;28;20014;-22
2022/03/15 06:33:32;;;;;;;12.77;9.75;;;;;;;1.36;65.88;102141.34;4995454;28;20117;-22
2022/03/15 06:35:57;;;;;;;12.95;9.05;;;;;;;1.37;65.49;102143.13;4986493;28;20097;-22
2022/03/15 06:38:24;;;;;;;11.48;8.73;;;;;;;1.36;65.42;102138.75;4996528;28;20532;-23
2022/03/15 06:40:52;;;;;;;11.38;9.80;;;;;;;1.38;65.82;102138.81;4994232;28;20117;-23
2022/03/15 06:43:18;;;;;;;10.20;8.60;;;;;;;1.37;65.63;102137.94;4991038;28;20542;-22
2022/03/15 06:45:44;;;;;;;12.00;9.57;;;;;;;1.39;65.58;102149.31;4995672;28;20038;-23
2022/03/15 06:48:10;;;;;;;12.30;9.05;;;;;;;1.40;65.81;102147.63;4990856;28;20022;-23
2022/03/15 06:50:36;;;;;;;12.20;9.45;;;;;;;1.40;65.61;102155.41;4997243;28;20037;-23
2022/03/15 06:53:02;;;;;;;10.80;9.00;;;;;;;1.43;65.61;102157.28;5002964;28;20760;-22
2022/03/15 06:55:27;;;;;;;13.63;9.63;;;;;;;1.44;65.66;102159.06;5003661;28;20479;-23
2022/03/15 06:57:53;;;;;;;12.35;9.70;;;;;;;1.45;65.68;102155.63;5006050;28;20022;-22
2022/03/15 07:00:18;;;;;;;12.35;9.38;;;;;;;1.46;65.54;102160.06;4994761;28;20026;-22
2022/03/15 07:02:44;;;;;;;11.25;8.88;;;;;;;1.47;65.32;102161.81;4996158;28;20034;-22
2022/03/15 07:05:10;;;;;;;10.43;9.23;;;;;;;1.49;65.59;102167.97;4992803;28;20117;-23
2022/03/15 07:07:36;;;;;;;12.77;9.32;;;;;;;1.51;65.56;102162.06;4991861;28;20373;-24
2022/03/15 07:10:05;;;;;;;11.65;8.98;;;;;;;1.53;65.17;102152.63;4990889;28;20473;-22
2022/03/15 07:12:32;;;;;;;12.25;8.90;;;;;;;1.55;65.34;102147.50;4990614;28;20416;-22
2022/03/15 07:14:57;;;;;;;9.80;8.80;;;;;;;1.57;65.19;102145.88;4990869;28;20085;-22
2022/03/15 07:17:22;;;;;;;10.45;8.52;;;;;;;1.59;64.97;102146.84;4989451;28;20018;-23
2022/03/15 07:19:48;;;;;;;10.32;9.20;;;;;;;1.62;64.80;102149.63;4989243;28;20030;-23
2022/03/15 07:22:13;;;;;;;11.07;8.98;;;;;;;1.64;64.76;102145.38;4990364;28;20030;-23
2022/03/15 07:24:39;;;;;;;10.23;9.15;;;;;;;1.66;64.47;102142.84;4986966;28;20030;-22
2022/03/15 07:27:04;;;;;;;11.15;8.65;;;;;;;1.69;64.73;102139.50;4993028;28;20097;-22
2022/03/15 07:29:30;;;;;;;12.20;9.60;;;;;;;1.72;64.58;102135.38;4990546;28;20465;-22
2022/03/15 07:31:56;;;;;;;13.13;9.07;;;;;;;1.74;64.30;102131.13;4990643;28;20494;-22
2022/03/15 07:34:21;;;;;;;11.07;9.57;;;;;;;1.77;64.54;102120.88;4989682;28;20036;-21
2022/03/15 07:36:47;;;;;;;12.55;9.43;;;;;;;1.80;64.35;102133.16;4991154;28;20107;-22
2022/03/15 07:39:13;;;;;;;12.65;10.02;;;;;;;1.81;64.79;102129.75;4988191;28;20038;-22
2022/03/15 07:41:40;;;;;;;11.02;9.80;;;;;;;1.86;64.80;102133.47;4991239;28;20037;-22
2022/03/15 07:44:09;;;;;;;11.60;8.95;;;;;;;1.87;64.56;102130.03;4992011;28;20072;-23
2022/03/15 07:46:36;;;;;;;11.25;9.02;;;;;;;1.90;64.51;102135.41;4992181;28;20080;-22
2022/03/15 07:49:01;;;;;;;10.88;9.48;;;;;;;1.94;64.46;102135.56;4992040;28;20057;-22
2022/03/15 07:51:27;;;;;;;12.18;9.73;;;;;;;1.98;64.58;102129.69;4990044;28;20030;-22
2022/03/15 07:53:52;;;;;;;11.38;9.05;;;;;;;2.00;64.53;102133.28;4992655;28;20026;-23
2022/03/15 07:56:17;;;;;;;11.13;9.27;;;;;;;2.02;64.64;102127.34;4989959;28;20022;-22
2022/03/15 07:58:43;;;;;;;11.90;9.45;;;;;;;2.06;64.55;102130.97;4988991;28;20038;-22
2022/03/15 08:01:08;;;;;;;10.63;8.50;;;;;;;2.10;64.52;102132.91;4987080;28;20030;-23
2022/03/15 08:03:34;;;;;;;10.45;9.13;;;;;;;2.14;64.76;102137.44;4984542;28;20157;-23
2022/03/15 08:06:00;;;;;;;11.68;9.00;;;;;;;2.17;64.57;102119.38;4991137;28;20026;-22
2022/03/15 08:08:25;;;;;;;11.75;9.30;;;;;;;2.22;64.59;102122.22;4970035;28;20205;-22
2022/03/15 08:10:51;;;;;;;11.98;9.45;;;;;;;2.27;64.68;102125.91;4992430;28;20088;-23
2022/03/15 08:13:16;;;;;;;11.88;9.63;;;;;;;2.31;64.52;102116.56;4992884;28;20131;-22
2022/03/15 08:15:42;;;;;;;11.00;8.70;;;;;;;2.36;64.72;102125.47;4991929;28;20018;-23
2022/03/15 08:18:07;;;;;;;11.80;8.93;;;;;;;2.41;64.54;102123.97;4991241;28;21144;-23
2022/03/15 08:20:33;;;;;;;11.60;8.75;;;;;;;2.46;64.60;102116.38;4991458;28;20030;-23
2022/03/15 08:22:59;;;;;;;11.35;8.73;;;;;;;2.50;64.71;102123.53;4992800;28;20017;-22
2022/03/15 08:25:25;;;;;;;12.32;9.75;;;;;;;2.55;64.79;102113.34;4989363;28;20035;-22
2022/03/15 08:27:50;;;;;;;10.48;9.43;;;;;;;2.62;64.57;102128.44;4992160;28;20072;-23
2022/03/15 08:30:16;;;;;;;12.23;9.20;;;;;;;2.66;64.11;102114.72;4989706;28;20030;-23
2022/03/15 08:32:41;;;;;;;11.60;8.80;;;;;;;2.72;64.34;102115.81;4987419;28;20034;-21
2022/03/15 08:35:07;;;;;;;11.77;9.25;;;;;;;2.78;64.27;102113.53;4975025;28;20392;-23
2022/03/15 08:37:35;;;;;;;11.55;8.90;;;;;;;2.82;64.33;102116.34;4990511;28;20026;-23
2022/03/15 08:40:01;;;;;;;15.65;9.20;;;;;;;2.90;64.07;102124.50;4990502;28;20026;-22
2022/03/15 08:42:26;;;;;;;10.68;8.75;;;;;;;2.94;64.22;102110.78;4988959;28;20515;-22
2022/03/15 08:44:52;;;;;;;11.65;8.95;;;;;;;2.99;63.70;102118.81;4989758;28;20200;-22
2022/03/15 08:47:18;;;;;;;10.68;9.00;;;;;;;3.04;64.15;102117.31;4991334;28;20030;-23
2022/03/15 08:49:43;;;;;;;10.70;9.20;;;;;;;3.10;64.68;102119.31;4989196;28;20029;-22
2022/03/15 08:52:10;;;;;;;14.90;10.32;;;;;;;3.17;63.97;102116.16;4989719;28;20556;-23
2022/03/15 08:54:37;;;;;;;11.52;9.20;;;;;;;3.24;64.34;102116.44;4991680;28;20053;-22
2022/03/15 08:57:03;;;;;;;12.18;10.25;;;;;;;3.30;64.43;102111.50;4992104;28;20057;-23
2022/03/15 08:59:28;;;;;;;11.15;9.18;;;;;;;3.35;64.05;102109.97;4989010;28;20048;-23
2022/03/15 09:01:53;;;;;;;11.75;9.57;;;;;;;3.42;64.53;102101.59;4990309;28;20030;-22
2022/03/15 09:04:19;;;;;;;13.55;10.52;;;;;;;3.49;64.98;102094.03;4990764;28;20030;-23
2022/03/15 09:06:44;;;;;;;11.95;9.32;;;;;;;3.56;64.82;102096.97;4988171;28;20096;-23
2022/03/15 09:09:10;;;;;;;13.02;9.30;;;;;;;3.62;64.44;102096.34;4989033;28;20097;-22
2022/03/15 09:11:35;;;;;;;12.35;9.82;;;;;;;3.69;64.44;102095.78;4991266;28;20125;-23
2022/03/15 09:14:01;;;;;;;13.00;9.68;;;;;;;3.77;65.10;102090.00;4989469;28;20026;-23
2022/03/15 09:16:27;;;;;;;12.93;10.30;;;;;;;3.83;64.57;102093.75;4988211;28;20113;-23
2022/03/15 09:18:53;;;;;;;14.57;9.70;;;;;;;3.92;64.34;102092.34;4992050;28;20038;-23
2022/03/15 09:21:18;;;;;;;10.90;8.95;;;;;;;3.99;64.40;102089.16;4963715;28;20321;-22
2022/03/15 09:23:44;;;;;;;12.77;9.60;;;;;;;4.07;64.20;102086.88;4990552;28;20450;-22
2022/03/15 09:26:09;;;;;;;11.68;9.35;;;;;;;4.12;64.42;102087.94;4989827;28;20102;-22
2022/03/15 09:28:35;;;;;;;9.75;8.68;;;;;;;4.21;64.64;102085.69;4993927;28;20030;-23
2022/03/15 09:31:01;;;;;;;10.98;9.25;;;;;;;4.28;64.86;102083.31;4989470;28;20030;-23
2022/03/15 09:33:27;;;;;;;11.35;8.77;;;;;;;4.35;65.26;102086.25;4993315;28;20161;-23
2022/03/15 09:35:52;;;;;;;13.27;9.23;;;;;;;4.41;65.14;102085.59;4991294;28;20031;-22
2022/03/15 09:38:20;;;;;;;11.38;8.32;;;;;;;4.47;64.60;102085.81;4987257;28;20129;-23
2022/03/15 09:40:50;;;;;;;11.23;8.45;;;;;;;4.55;64.69;102073.06;4985210;28;20029;-23
2022/03/15 09:43:19;;;;;;;12.43;9.55;;;;;;;4.64;64.41;102067.31;4990302;28;20088;-23
2022/03/15 09:45:45;;;;;;;11.18;8.85;;;;;;;4.73;64.34;102067.66;4989178;28;20053;-22
2022/03/15 09:48:14;;;;;;;10.82;9.00;;;;;;;4.79;64.38;102060.84;4987757;28;20473;-23
2022/03/15 09:50:40;;;;;;;9.70;8.50;;;;;;;4.87;64.46;102052.47;4986511;28;20114;-23
2022/03/15 09:53:06;;;;;;;10.77;7.93;;;;;;;4.96;64.33;102053.63;4991492;28;20098;-22
2022/03/15 09:55:31;;;;;;;12.13;8.95;;;;;;;5.03;64.63;102049.53;4995081;28;20105;-22
2022/03/15 09:57:57;;;;;;;11.35;8.65;;;;;;;5.11;64.01;102048.09;4999031;28;20019;-22
2022/03/15 10:00:23;;;;;;;10.75;8.00;;;;;;;5.17;64.37;102036.94;4998169;28;20084;-23
2022/03/15 10:02:48;;;;;;;11.23;8.00;;;;;;;5.25;64.64;102031.16;4999849;28;20404;-23
2022/03/15 10:05:14;;;;;;;10.85;7.88;;;;;;;5.33;64.41;102023.56;5005652;28;20029;-22
2022/03/15 10:07:40;;;;;;;10.77;8.25;;;;;;;5.40;64.13;102024.66;5001530;28;20324;-21
2022/03/15 10:10:10;;;;;;;10.18;7.55;;;;;;;5.49;64.38;102021.47;4975187;28;20029;-20
2022/03/15 10:12:36;;;;;;;10.60;8.27;;;;;;;5.58;63.70;102010.41;4989530;28;20091;-23
2022/03/15 10:15:16;;;;;;;11.73;8.05;;;;;;;5.67;64.26;102013.31;4988230;28;20023;-23
2022/03/15 10:17:52;;;;;;;10.35;7.43;;;;;;;5.74;64.47;102010.06;4992923;28;20038;-22
2022/03/15 10:20:18;;;;;;;10.65;7.97;;;;;;;5.84;64.15;102011.25;4987271;28;20439;-21
2022/03/15 10:23:01;;;;;;;8.85;7.43;;;;;;;5.93;64.51;101997.56;4991105;28;20034;-22
2022/03/15 10:25:27;;;;;;;10.60;7.88;;;;;;;6.01;64.15;101998.69;4990321;28;20049;-23
2022/03/15 10:28:06;;;;;;;9.07;8.15;;;;;;;6.13;64.78;101997.34;4988323;28;20034;-23
2022/03/15 10:30:32;;;;;;;9.70;7.40;;;;;;;6.19;64.79;101989.66;4989501;28;20532;-23
2022/03/15 10:32:58;;;;;;;8.52;7.30;;;;;;;6.28;64.38;101989.94;4994314;28;20121;-23
2022/03/15 10:35:27;;;;;;;8.70;7.00;;;;;;;6.36;64.38;101978.78;4991808;28;20018;-21
2022/03/15 10:37:54;;;;;;;8.88;6.90;;;;;;;6.44;64.62;101971.16;4989287;28;20033;-23
2022/03/15 10:40:31;;;;;;;10.48;7.20;;;;;;;6.51;64.52;101963.50;4991505;28;20026;-23
2022/03/15 10:43:15;;;;;;;9.07;6.97;;;;;;;6.61;64.09;101961.16;4974787;28;20026;-22
2022/03/15 10:45:43;;;;;;;8.23;6.60;;;;;;;6.69;64.04;101959.63;4991150;28;20033;-23
2022/03/15 10:48:25;;;;;;;8.07;6.97;;;;;;;6.78;63.77;101959.91;4994407;28;20037;-22
2022/03/15 10:50:54;;;;;;;7.72;6.85;;;;;;;6.85;63.73;101953.09;4988586;28;20105;-23
2022/03/15 10:53:20;;;;;;;8.98;6.78;;;;;;;6.93;64.50;101948.94;4988745;28;20118;-23
2022/03/15 10:55:46;;;;;;;8.82;6.90;;;;;;;7.02;63.65;101947.41;4990655;28;20023;-23
2022/03/15 10:58:13;;;;;;;10.52;6.63;;;;;;;7.08;63.72;101946.66;4989698;28;20089;-23
2022/03/15 11:00:42;;;;;;;8.55;7.20;;;;;;;7.17;63.67;101941.69;4992820;28;20376;-21
2022/03/15 11:03:13;;;;;;;8.13;7.00;;;;;;;7.24;63.43;101935.69;4992208;28;20026;-22
2022/03/15 11:05:39;;;;;;;;;;;;;;;7.31;62.92;101927.13;4990382;28;20026;-22
2022/03/15 11:08:06;;;;;;;8.23;7.28;;;;;;;7.38;63.44;101928.19;4993712;28;20003;-24
2022/03/15 11:10:32;;;;;;;9.13;6.97;;;;;;;7.44;63.09;101933.56;4992327;28;20237;-23
2022/03/15 11:12:58;;;;;;;8.95;7.40;;;;;;;7.50;63.33;101924.97;4994613;28;20030;-23
2022/03/15 11:15:30;;;;;;;9.02;7.03;;;;;;;7.56;62.88;101906.75;4993143;28;20022;-22
2022/03/15 11:18:01;;;;;;;9.40;6.65;;;;;;;7.62;62.89;101906.00;4990087;28;20435;-22
2022/03/15 11:20:31;;;;;;;8.02;7.03;;;;;;;7.70;62.68;101900.91;4991880;28;20037;-22
2022/03/15 11:22:59;;;;;;;9.93;7.13;;;;;;;7.77;63.26;101896.69;4997119;28;20413;-23